Time;durP1;ratioP1;P1;durP2;ratioP2;P2;SDS_P1;SDS_P2;PMS_P1;PMS_P2;Temp;Humidity;BMP_temperature;BMP_pressure;BME280_temperature;BME280_humidity;BME280_pressure;Samples;Min_cycle;Max_cycle;Signal;HPM_P1;HPM_P2
2024/01/16 00:01:14;;;;;;;14.02;2.88;;;1.90;99.90;;;;;;5073505;28;20024;-85
2024/01/16 00:03:40;;;;;;;5.13;1.92;;;1.90;99.90;;;;;;5058184;28;20465;-85
2024/01/16 00:06:06;;;;;;;9.07;2.28;;;2.00;99.90;;;;;;5070650;28;20025;-85
2024/01/16 00:08:32;;;;;;;5.38;1.92;;;2.10;99.90;;;;;;5075481;28;20024;-85
2024/01/16 00:10:58;;;;;;;9.35;2.17;;;2.00;99.90;;;;;;5062699;28;20134;-85
2024/01/16 00:13:23;;;;;;;5.70;1.90;;;2.00;99.90;;;;;;5057782;28;20025;-85
2024/01/16 00:15:49;;;;;;;11.02;2.30;;;2.10;99.90;;;;;;5070362;28;20028;-85
2024/01/16 00:18:15;;;;;;;14.77;3.10;;;2.10;99.90;;;;;;5057094;28;20037;-86
2024/01/16 00:20:40;;;;;;;8.25;1.83;;;2.80;99.90;;;;;;5055685;28;20050;-86
2024/01/16 00:23:06;;;;;;;8.65;2.42;;;2.00;99.90;;;;;;5073672;28;20341;-85
2024/01/16 00:25:32;;;;;;;8.18;2.05;;;1.90;99.90;;;;;;5072660;28;20084;-85
2024/01/16 00:27:57;;;;;;;3.95;1.48;;;1.90;99.90;;;;;;5076051;28;20025;-86
2024/01/16 00:30:23;;;;;;;6.40;1.88;;;1.80;99.90;;;;;;5069069;28;20049;-84
2024/01/16 00:32:48;;;;;;;6.20;1.52;;;1.90;99.90;;;;;;5054454;28;20392;-85
2024/01/16 00:35:14;;;;;;;10.38;1.60;;;2.20;99.90;;;;;;5068938;28;20384;-85
2024/01/16 00:37:39;;;;;;;12.32;1.73;;;1.80;99.90;;;;;;5072533;28;20036;-86
2024/01/16 00:40:08;;;;;;;10.52;1.98;;;1.80;99.90;;;;;;5062479;28;20495;-85
2024/01/16 00:42:34;;;;;;;9.35;1.30;;;1.80;99.90;;;;;;5061557;28;20023;-85
2024/01/16 00:44:59;;;;;;;5.95;1.40;;;1.80;99.90;;;;;;5073823;28;20115;-86
2024/01/16 00:47:25;;;;;;;10.70;1.70;;;1.80;99.90;;;;;;5059398;28;20044;-86
2024/01/16 00:49:51;;;;;;;8.15;1.77;;;1.70;99.90;;;;;;5054300;28;20031;-86
2024/01/16 00:52:16;;;;;;;5.55;1.85;;;1.80;99.90;;;;;;5059377;28;20484;-85
2024/01/16 00:54:43;;;;;;;12.18;1.70;;;1.70;99.90;;;;;;5074253;28;20043;-86
2024/01/16 00:57:08;;;;;;;4.78;1.00;;;1.80;99.90;;;;;;5064475;28;20037;-85
2024/01/16 00:59:34;;;;;;;7.97;1.40;;;1.80;99.90;;;;;;5053063;28;20082;-85
2024/01/16 01:02:00;;;;;;;13.65;1.40;;;1.70;99.90;;;;;;5072500;28;20032;-86
2024/01/16 01:04:25;;;;;;;5.35;0.95;;;1.80;99.90;;;;;;5067206;28;20040;-86
2024/01/16 01:06:51;;;;;;;5.05;1.17;;;1.80;99.90;;;;;;5053735;28;20031;-86
2024/01/16 01:09:22;;;;;;;5.53;1.27;;;1.70;99.90;;;;;;5061242;28;20051;-85
2024/01/16 01:11:48;;;;;;;6.28;1.63;;;2.80;99.90;;;;;;5073604;28;20048;-85
2024/01/16 01:14:13;;;;;;;9.70;1.33;;;1.80;99.90;;;;;;5058551;28;20481;-87
2024/01/16 01:16:39;;;;;;;13.80;1.75;;;2.80;99.90;;;;;;5065151;28;20090;-86
2024/01/16 01:19:04;;;;;;;4.55;1.08;;;2.80;99.90;;;;;;5073954;28;20361;-87
2024/01/16 01:21:30;;;;;;;13.63;1.83;;;1.80;99.90;;;;;;5073047;28;20047;-85
2024/01/16 01:23:55;;;;;;;5.82;0.90;;;1.90;99.90;;;;;;5054550;28;20061;-86
2024/01/16 01:26:21;;;;;;;7.43;1.77;;;1.90;99.90;;;;;;5067183;28;20040;-86
2024/01/16 01:28:47;;;;;;;7.80;0.90;;;1.90;99.90;;;;;;5058900;28;20124;-86
2024/01/16 01:31:12;;;;;;;3.05;0.93;;;1.90;99.90;;;;;;5055712;28;20032;-86
2024/01/16 01:33:39;;;;;;;5.53;1.33;;;1.90;99.90;;;;;;5062271;28;20020;-87
2024/01/16 01:36:05;;;;;;;7.25;1.10;;;1.80;99.90;;;;;;5054255;28;20039;-87
2024/01/16 01:38:30;;;;;;;7.13;1.15;;;1.90;99.90;;;;;;5057137;28;20033;-87
2024/01/16 01:40:58;;;;;;;3.55;1.45;;;1.90;99.90;;;;;;5069014;28;20027;-86
2024/01/16 01:43:25;;;;;;;11.90;1.35;;;1.90;99.90;;;;;;5072567;28;20035;-86
2024/01/16 01:46:11;;;;;;;8.00;1.73;;;1.80;99.90;;;;;;5072443;28;20021;-86
2024/01/16 01:48:43;;;;;;;9.40;1.58;;;1.80;99.90;;;;;;5069230;28;20025;-87
2024/01/16 01:51:11;;;;;;;6.10;1.27;;;1.80;99.90;;;;;;5052426;28;20148;-87
2024/01/16 01:53:38;;;;;;;6.57;1.00;;;1.80;99.90;;;;;;5064403;28;20042;-85
2024/01/16 01:56:06;;;;;;;5.97;1.00;;;1.80;99.90;;;;;;5059159;28;20032;-86
2024/01/16 01:58:33;;;;;;;7.30;1.50;;;1.80;99.90;;;;;;5054481;28;20133;-86
2024/01/16 02:01:00;;;;;;;6.65;0.60;;;1.80;99.90;;;;;;5053296;28;20025;-86
2024/01/16 02:03:29;;;;;;;8.02;0.80;;;1.80;99.90;;;;;;5061839;28;20043;-86
2024/01/16 02:05:55;;;;;;;7.50;0.85;;;1.90;99.90;;;;;;5072175;28;20074;-86
2024/01/16 02:08:22;;;;;;;8.18;0.98;;;1.90;99.90;;;;;;5052178;28;20385;-87
2024/01/16 02:10:49;;;;;;;2.83;0.90;;;1.90;99.90;;;;;;5056022;28;20041;-87
2024/01/16 02:13:18;;;;;;;6.28;0.90;;;1.90;99.90;;;;;;5072033;28;20508;-85
2024/01/16 02:15:44;;;;;;;3.92;0.73;;;2.00;99.90;;;;;;5070339;28;20036;-87
2024/01/16 02:18:09;;;;;;;7.15;1.35;;;2.00;99.90;;;;;;5071221;28;20476;-86
2024/01/16 02:20:35;;;;;;;3.22;0.88;;;2.00;99.90;;;;;;5063623;28;20029;-86
2024/01/16 02:23:03;;;;;;;6.10;1.30;;;2.00;99.90;;;;;;5028476;28;1213070;-85
2024/01/16 02:25:30;;;;;;;2.90;0.68;;;2.00;99.90;;;;;;5069246;28;20081;-86
2024/01/16 02:27:55;;;;;;;5.07;0.60;;;2.00;99.90;;;;;;5053187;28;20025;-88
2024/01/16 02:30:21;;;;;;;4.03;1.13;;;1.90;99.90;;;;;;5063774;28;20021;-87
2024/01/16 02:32:47;;;;;;;4.28;1.10;;;2.00;99.90;;;;;;5056163;28;20029;-86
2024/01/16 02:35:13;;;;;;;4.22;0.75;;;2.00;99.90;;;;;;5053180;28;20029;-87
2024/01/16 02:37:38;;;;;;;2.15;0.82;;;2.00;99.90;;;;;;5062607;28;20041;-87
2024/01/16 02:40:06;;;;;;;2.22;0.80;;;2.10;99.90;;;;;;5052862;28;20067;-85
2024/01/16 02:42:32;;;;;;;4.53;0.80;;;2.00;99.90;;;;;;5052282;28;20074;-86
2024/01/16 02:44:58;;;;;;;4.38;0.70;;;2.50;99.90;;;;;;5051815;28;20389;-85
2024/01/16 02:47:24;;;;;;;4.95;0.85;;;2.10;99.90;;;;;;5054402;28;20025;-85
2024/01/16 02:49:50;;;;;;;8.90;1.27;;;2.10;99.90;;;;;;5062959;28;20025;-86
2024/01/16 02:52:15;;;;;;;5.75;0.68;;;2.00;99.90;;;;;;5051563;28;20029;-85
2024/01/16 02:54:41;;;;;;;5.28;1.17;;;2.00;99.90;;;;;;5051886;28;20025;-85
2024/01/16 02:57:07;;;;;;;5.97;0.80;;;1.90;99.90;;;;;;5052473;28;20033;-86
2024/01/16 02:59:32;;;;;;;5.00;0.90;;;1.80;99.90;;;;;;5051166;28;20032;-86
2024/01/16 03:01:58;;;;;;;3.28;0.95;;;1.80;99.90;;;;;;5052092;28;20021;-85
2024/01/16 03:04:24;;;;;;;5.30;0.95;;;1.70;99.90;;;;;;5052555;28;20029;-85
2024/01/16 03:06:49;;;;;;;6.68;0.82;;;1.60;99.90;;;;;;5051073;28;20461;-86
2024/01/16 03:09:15;;;;;;;4.80;0.70;;;1.60;99.90;;;;;;5052363;28;20036;-86
2024/01/16 03:11:41;;;;;;;5.57;1.27;;;1.60;99.90;;;;;;5067148;28;20021;-85
2024/01/16 03:14:07;;;;;;;6.13;0.70;;;1.60;99.90;;;;;;5053449;28;20025;-85
2024/01/16 03:16:32;;;;;;;4.45;0.80;;;1.60;99.90;;;;;;5051910;28;20032;-85
2024/01/16 03:18:58;;;;;;;8.55;0.90;;;1.60;99.90;;;;;;5052257;28;20481;-86
2024/01/16 03:21:23;;;;;;;5.57;0.95;;;1.60;99.90;;;;;;5055721;28;20032;-86
2024/01/16 03:23:50;;;;;;;4.75;1.10;;;1.60;99.90;;;;;;5055559;28;20045;-85
2024/01/16 03:26:16;;;;;;;2.83;0.77;;;1.60;99.90;;;;;;5053806;28;20473;-85
2024/01/16 03:28:42;;;;;;;3.83;0.57;;;2.20;99.90;;;;;;5051845;28;20036;-86
2024/01/16 03:31:07;;;;;;;3.97;0.90;;;1.60;99.90;;;;;;5051891;28;20476;-86
2024/01/16 03:33:34;;;;;;;4.45;1.02;;;1.50;99.90;;;;;;5061767;28;20340;-86
2024/01/16 03:36:01;;;;;;;3.25;0.90;;;1.60;99.90;;;;;;5058714;28;20039;-86
2024/01/16 03:38:26;;;;;;;5.63;1.00;;;1.60;99.90;;;;;;5063493;28;20033;-84
2024/01/16 03:40:52;;;;;;;2.65;0.90;;;1.70;99.90;;;;;;5056257;28;20310;-86
2024/01/16 03:43:18;;;;;;;2.80;0.90;;;1.70;99.90;;;;;;5073918;28;20086;-85
2024/01/16 03:45:44;;;;;;;3.15;0.82;;;1.80;99.90;;;;;;5075595;28;20077;-86
2024/01/16 03:48:09;;;;;;;2.90;0.90;;;1.80;99.90;;;;;;5075256;28;20540;-85
2024/01/16 03:50:36;;;;;;;3.63;0.93;;;1.80;99.90;;;;;;5075195;28;20027;-86
2024/01/16 03:53:03;;;;;;;2.00;0.50;;;1.80;99.90;;;;;;5076012;28;20025;-86
2024/01/16 03:55:30;;;;;;;1.20;0.60;;;1.80;99.90;;;;;;5064698;28;20576;-86
2024/01/16 03:57:55;;;;;;;1.92;1.02;;;1.80;99.90;;;;;;5061878;28;20063;-86
2024/01/16 04:00:21;;;;;;;2.55;0.93;;;1.80;99.90;;;;;;5075708;28;20021;-86
2024/01/16 04:02:47;;;;;;;5.50;0.82;;;1.80;99.90;;;;;;5074381;28;20028;-86
2024/01/16 04:05:12;;;;;;;1.77;0.93;;;2.20;99.90;;;;;;5071180;28;20028;-85
2024/01/16 04:07:38;;;;;;;8.93;2.75;;;1.80;99.90;;;;;;5060900;28;20514;-85
2024/01/16 04:10:06;;;;;;;1.77;0.80;;;1.80;99.90;;;;;;5066107;28;20391;-86
2024/01/16 04:12:31;;;;;;;2.88;1.10;;;1.90;99.90;;;;;;5055038;28;20040;-85
2024/01/16 04:14:57;;;;;;;5.60;1.42;;;1.90;99.90;;;;;;5065981;28;20401;-85
2024/01/16 04:17:22;;;;;;;5.45;1.50;;;2.00;99.90;;;;;;5054645;28;20424;-86
2024/01/16 04:19:48;;;;;;;6.13;1.40;;;2.00;99.90;;;;;;5055072;28;20017;-86
2024/01/16 04:22:13;;;;;;;3.25;1.40;;;2.00;99.90;;;;;;5055881;28;20501;-86
2024/01/16 04:24:39;;;;;;;6.13;1.58;;;2.10;99.90;;;;;;5071076;28;20468;-85
2024/01/16 04:27:05;;;;;;;13.23;1.38;;;2.20;99.90;;;;;;5075643;28;20476;-85
2024/01/16 04:29:30;;;;;;;4.90;1.30;;;2.10;99.90;;;;;;5074032;28;20064;-85
2024/01/16 04:31:57;;;;;;;3.80;1.58;;;2.00;99.90;;;;;;5074758;28;20036;-85
2024/01/16 04:34:22;;;;;;;5.65;1.60;;;2.00;99.90;;;;;;5072731;28;20059;-85
2024/01/16 04:36:48;;;;;;;4.68;1.23;;;2.00;99.90;;;;;;5065881;28;20061;-86
2024/01/16 04:39:17;;;;;;;3.63;1.25;;;2.10;99.90;;;;;;5074903;28;20021;-85
2024/01/16 04:41:42;;;;;;;2.60;1.20;;;2.00;99.90;;;;;;5064669;28;20060;-86
2024/01/16 04:44:11;;;;;;;2.55;1.20;;;2.10;99.90;;;;;;5070981;28;20063;-85
2024/01/16 04:46:39;;;;;;;3.90;1.65;;;2.10;99.90;;;;;;5054461;28;20116;-86
2024/01/16 04:49:05;;;;;;;5.03;1.85;;;2.10;99.90;;;;;;5064745;28;20032;-86
2024/01/16 04:51:31;;;;;;;6.13;1.75;;;2.10;99.90;;;;;;5074608;28;20116;-85
2024/01/16 04:53:56;;;;;;;2.50;1.20;;;2.10;99.90;;;;;;5056969;28;20036;-86
2024/01/16 04:56:26;;;;;;;3.67;1.50;;;2.10;99.90;;;;;;5052458;28;20082;-84
2024/01/16 04:58:52;;;;;;;6.30;2.50;;;3.20;99.90;;;;;;5073632;28;20040;-86
2024/01/16 05:01:33;;;;;;;3.13;1.70;;;3.00;99.90;;;;;;5068384;28;20110;-86
2024/01/16 05:03:58;;;;;;;;;;;2.20;99.90;;;;;;5059609;28;20024;-85
2024/01/16 05:06:24;;;;;;;1.23;1.13;;;3.20;99.90;;;;;;5053327;28;19916;-85
2024/01/16 05:08:49;;;;;;;4.20;1.20;;;2.20;99.90;;;;;;5053313;28;20071;-85
2024/01/16 05:11:30;;;;;;;6.15;2.42;;;3.30;99.90;;;;;;5060474;28;20111;-85
2024/01/16 05:13:57;;;;;;;2.65;1.23;;;2.00;99.90;;;;;;5052876;28;20041;-85
2024/01/16 05:16:41;;;;;;;4.00;2.03;;;2.20;99.90;;;;;;5053970;28;20382;-86
2024/01/16 05:19:07;;;;;;;1.85;1.30;;;2.20;99.90;;;;;;5053461;28;20055;-86
2024/01/16 05:21:50;;;;;;;2.65;1.52;;;2.20;99.90;;;;;;5053491;28;20467;-86
2024/01/16 05:24:16;;;;;;;3.30;1.60;;;2.30;99.90;;;;;;5071017;28;20048;-85
2024/01/16 05:26:41;;;;;;;6.20;1.95;;;2.20;99.90;;;;;;5071000;28;20381;-87
2024/01/16 05:29:07;;;;;;;4.45;1.58;;;2.30;99.90;;;;;;5074505;28;20023;-84
2024/01/16 05:31:32;;;;;;;3.53;2.17;;;2.40;99.90;;;;;;5073456;28;20508;-87
2024/01/16 05:33:58;;;;;;;5.43;1.75;;;2.30;99.90;;;;;;5070627;28;20047;-87
2024/01/16 05:36:24;;;;;;;8.95;2.15;;;2.30;99.90;;;;;;5053443;28;20021;-86
2024/01/16 05:38:50;;;;;;;8.98;2.05;;;2.30;99.90;;;;;;5053516;28;20029;-86
2024/01/16 05:41:16;;;;;;;9.10;2.08;;;2.30;99.90;;;;;;5067319;28;20020;-87
2024/01/16 05:43:41;;;;;;;12.52;2.03;;;2.40;99.90;;;;;;5072112;28;20032;-86
2024/01/16 05:46:07;;;;;;;10.10;1.73;;;2.40;99.90;;;;;;5068723;28;20017;-86
2024/01/16 05:48:32;;;;;;;7.97;2.83;;;2.40;99.90;;;;;;5072718;28;20035;-86
2024/01/16 05:50:58;;;;;;;7.75;1.85;;;2.50;99.90;;;;;;5063264;28;20029;-86
2024/01/16 05:53:23;;;;;;;6.10;1.80;;;2.50;99.90;;;;;;5067510;28;20496;-86
2024/01/16 05:55:49;;;;;;;5.75;1.92;;;2.50;99.90;;;;;;5071548;28;20488;-87
2024/01/16 05:58:14;;;;;;;11.05;2.17;;;2.50;99.90;;;;;;5053790;28;20380;-87
2024/01/16 06:00:40;;;;;;;15.00;2.47;;;2.50;99.90;;;;;;5066654;28;20536;-87
2024/01/16 06:03:06;;;;;;;6.10;1.75;;;2.50;99.90;;;;;;5072890;28;20143;-86
2024/01/16 06:05:31;;;;;;;5.40;2.30;;;2.50;99.90;;;;;;5072850;28;20050;-87
2024/01/16 06:07:57;;;;;;;6.45;2.35;;;2.40;99.90;;;;;;5072876;28;20052;-87
2024/01/16 06:10:22;;;;;;;9.55;2.35;;;2.30;99.90;;;;;;5063308;28;20053;-87
2024/01/16 06:12:48;;;;;;;6.85;1.83;;;2.30;99.90;;;;;;5055791;28;20041;-86
2024/01/16 06:15:14;;;;;;;12.60;2.17;;;2.30;99.90;;;;;;5052440;28;20388;-86
2024/01/16 06:17:39;;;;;;;10.70;1.90;;;2.30;99.90;;;;;;5066261;28;20032;-87
2024/01/16 06:20:06;;;;;;;8.40;1.80;;;2.30;99.90;;;;;;5071636;28;20020;-85
2024/01/16 06:22:32;;;;;;;6.35;1.80;;;2.30;99.90;;;;;;5066371;28;20167;-86
2024/01/16 06:24:57;;;;;;;7.45;1.73;;;2.30;99.90;;;;;;5056290;28;20532;-85
2024/01/16 06:27:23;;;;;;;9.25;2.75;;;2.30;99.90;;;;;;5072110;28;20065;-85
2024/01/16 06:29:48;;;;;;;10.77;1.95;;;2.30;99.90;;;;;;5071475;28;20106;-85
2024/01/16 06:32:14;;;;;;;8.38;1.73;;;2.40;99.90;;;;;;5066091;28;20032;-86
2024/01/16 06:34:40;;;;;;;7.82;1.63;;;2.30;99.90;;;;;;5052162;28;20397;-87
2024/01/16 06:37:05;;;;;;;15.57;2.10;;;2.40;99.90;;;;;;5062354;28;20031;-86
2024/01/16 06:39:31;;;;;;;9.90;1.85;;;2.30;99.90;;;;;;5072702;28;20036;-86
2024/01/16 06:41:57;;;;;;;9.75;1.80;;;2.40;99.90;;;;;;5062816;28;20029;-86
2024/01/16 06:44:22;;;;;;;8.90;1.73;;;2.40;99.90;;;;;;5068312;28;20131;-85
2024/01/16 06:46:48;;;;;;;4.57;1.75;;;2.30;99.90;;;;;;5067781;28;20048;-86
2024/01/16 06:49:13;;;;;;;11.77;2.45;;;2.40;99.90;;;;;;5071053;28;20021;-86
2024/01/16 06:51:39;;;;;;;4.50;2.10;;;2.30;99.90;;;;;;5069283;28;20119;-86
2024/01/16 06:54:04;;;;;;;11.05;2.40;;;2.40;99.90;;;;;;5063105;28;20025;-86
2024/01/16 06:56:30;;;;;;;4.78;2.08;;;3.50;99.90;;;;;;5070857;28;20036;-86
2024/01/16 06:58:55;;;;;;;12.63;1.52;;;2.30;99.90;;;;;;5055138;28;20174;-86
2024/01/16 07:01:21;;;;;;;5.47;1.67;;;2.30;99.90;;;;;;5052330;28;20099;-86
2024/01/16 07:03:47;;;;;;;10.63;1.85;;;2.20;99.90;;;;;;5051624;28;20048;-85
2024/01/16 07:06:12;;;;;;;7.10;1.90;;;2.20;99.90;;;;;;5050205;28;20519;-85
2024/01/16 07:08:38;;;;;;;14.40;3.67;;;2.20;99.90;;;;;;5065211;28;20029;-85
2024/01/16 07:11:07;;;;;;;1.67;0.95;;;2.70;99.90;;;;;;5070105;28;20028;-84
2024/01/16 07:13:34;;;;;;;6.53;2.30;;;2.10;99.90;;;;;;5066139;28;20079;-84
2024/01/16 07:15:59;;;;;;;7.15;1.40;;;2.20;99.90;;;;;;5071647;28;20476;-84
2024/01/16 07:18:27;;;;;;;6.80;1.77;;;2.10;99.90;;;;;;5053538;28;20051;-84
2024/01/16 07:20:52;;;;;;;8.45;1.90;;;2.20;99.90;;;;;;5068617;28;20457;-85
2024/01/16 07:23:18;;;;;;;16.65;2.33;;;2.10;99.90;;;;;;5070738;28;20139;-85
2024/01/16 07:25:43;;;;;;;9.50;1.90;;;2.20;99.90;;;;;;5069835;28;20036;-85
2024/01/16 07:28:09;;;;;;;12.38;2.63;;;2.10;99.90;;;;;;5071144;28;20380;-85
2024/01/16 07:30:34;;;;;;;6.45;1.80;;;3.10;99.90;;;;;;5068306;28;20418;-84
2024/01/16 07:33:00;;;;;;;6.45;1.48;;;2.20;99.90;;;;;;5069430;28;20468;-85
2024/01/16 07:35:26;;;;;;;8.50;1.80;;;2.20;99.90;;;;;;5071113;28;20532;-85
2024/01/16 07:37:51;;;;;;;10.05;2.00;;;2.20;99.90;;;;;;5055467;28;20090;-84
2024/01/16 07:40:17;;;;;;;7.30;2.05;;;2.20;99.90;;;;;;5065526;28;20032;-84
2024/01/16 07:42:43;;;;;;;7.88;2.05;;;2.20;99.90;;;;;;5069129;28;20527;-87
2024/01/16 07:45:09;;;;;;;13.57;3.35;;;2.20;99.90;;;;;;5071385;28;20387;-86
2024/01/16 07:47:36;;;;;;;6.65;1.75;;;2.20;99.90;;;;;;5069717;28;20028;-86
2024/01/16 07:50:01;;;;;;;9.85;2.45;;;2.20;99.90;;;;;;5070843;28;20101;-86
2024/01/16 07:52:28;;;;;;;8.85;2.80;;;2.30;99.90;;;;;;5071113;28;20025;-86
2024/01/16 07:54:53;;;;;;;6.57;2.13;;;2.30;99.90;;;;;;5070584;28;20032;-85
2024/01/16 07:57:19;;;;;;;5.03;2.00;;;2.30;99.90;;;;;;5064818;28;20024;-86
2024/01/16 07:59:44;;;;;;;10.05;2.22;;;2.30;99.90;;;;;;5070954;28;20119;-86
2024/01/16 08:02:10;;;;;;;13.40;3.25;;;2.30;99.90;;;;;;5070840;28;20028;-86
2024/01/16 08:04:36;;;;;;;7.65;2.30;;;2.30;99.90;;;;;;5064362;28;20035;-85
2024/01/16 08:07:02;;;;;;;12.50;2.10;;;2.30;99.90;;;;;;5072012;28;20044;-86
2024/01/16 08:09:27;;;;;;;4.25;1.85;;;2.30;99.90;;;;;;5068191;28;20490;-86
2024/01/16 08:11:53;;;;;;;5.88;1.98;;;2.30;99.90;;;;;;5067417;28;20090;-85
2024/01/16 08:14:18;;;;;;;7.05;2.65;;;2.50;99.90;;;;;;5067856;28;20043;-88
2024/01/16 08:16:44;;;;;;;10.75;3.08;;;2.30;99.90;;;;;;5070251;28;20522;-86
2024/01/16 08:19:10;;;;;;;5.70;1.85;;;2.20;99.90;;;;;;5070272;28;20039;-85
2024/01/16 08:21:36;;;;;;;8.52;2.17;;;2.20;99.90;;;;;;5072276;28;20028;-84
2024/01/16 08:24:02;;;;;;;8.80;2.17;;;2.20;99.90;;;;;;5058907;28;20045;-85
2024/01/16 08:26:28;;;;;;;16.80;2.10;;;2.20;99.90;;;;;;5066665;28;20020;-85
2024/01/16 08:28:54;;;;;;;3.63;1.60;;;2.20;99.90;;;;;;5073488;28;20046;-85
2024/01/16 08:31:20;;;;;;;8.75;1.83;;;2.10;99.90;;;;;;5072721;28;20029;-87
2024/01/16 08:33:45;;;;;;;7.32;2.65;;;2.10;99.90;;;;;;5073877;28;20020;-85
2024/01/16 08:36:11;;;;;;;5.07;1.60;;;2.10;99.90;;;;;;5071972;28;20066;-87
2024/01/16 08:38:37;;;;;;;6.57;1.98;;;2.00;99.90;;;;;;5073672;28;20097;-87
2024/01/16 08:41:06;;;;;;;8.77;1.83;;;2.00;99.90;;;;;;5072755;28;20468;-86
2024/01/16 08:43:33;;;;;;;8.18;2.10;;;2.10;99.90;;;;;;5071362;28;20024;-86
2024/01/16 08:45:58;;;;;;;5.57;1.88;;;2.10;99.90;;;;;;5071492;28;20025;-84
2024/01/16 08:48:24;;;;;;;9.93;2.63;;;2.10;99.90;;;;;;5073298;28;20023;-87
2024/01/16 08:50:49;;;;;;;12.68;2.92;;;2.10;99.90;;;;;;5073890;28;20017;-87
2024/01/16 08:53:15;;;;;;;5.20;1.98;;;2.60;99.90;;;;;;5074089;28;20372;-85
2024/01/16 08:55:41;;;;;;;7.30;2.20;;;2.20;99.90;;;;;;5073495;28;20552;-84
2024/01/16 08:58:06;;;;;;;6.40;2.50;;;2.20;99.90;;;;;;5072655;28;20037;-86
2024/01/16 09:00:33;;;;;;;9.73;2.50;;;2.20;99.90;;;;;;5073271;28;20031;-84
2024/01/16 09:02:58;;;;;;;8.32;2.55;;;2.20;99.90;;;;;;5073706;28;20384;-84
2024/01/16 09:05:25;;;;;;;6.60;2.00;;;2.20;99.90;;;;;;5072052;28;20025;-83
2024/01/16 09:07:52;;;;;;;9.70;2.30;;;2.20;99.90;;;;;;5071284;28;20512;-84
2024/01/16 09:10:18;;;;;;;9.00;2.20;;;2.40;99.90;;;;;;5070059;28;20028;-84
2024/01/16 09:12:44;;;;;;;7.05;2.40;;;2.30;99.90;;;;;;5072378;28;20029;-84
2024/01/16 09:15:10;;;;;;;10.85;2.15;;;2.20;99.90;;;;;;5073241;28;20028;-84
2024/01/16 09:17:35;;;;;;;9.15;2.75;;;2.30;99.90;;;;;;5071959;28;20052;-85
2024/01/16 09:20:01;;;;;;;5.10;3.13;;;2.30;99.90;;;;;;5072166;28;20033;-86
2024/01/16 09:22:27;;;;;;;6.13;2.50;;;2.30;99.90;;;;;;5073320;28;20143;-83
2024/01/16 09:24:52;;;;;;;6.82;2.92;;;2.30;99.90;;;;;;5072534;28;20031;-85
2024/01/16 09:27:18;;;;;;;8.85;2.50;;;2.40;99.90;;;;;;5069214;28;20028;-84
2024/01/16 09:29:44;;;;;;;7.32;2.25;;;2.40;99.90;;;;;;5072844;28;20503;-83
2024/01/16 09:32:09;;;;;;;8.23;2.00;;;2.40;99.90;;;;;;5071779;28;20044;-85
2024/01/16 09:34:35;;;;;;;9.68;2.47;;;2.50;99.90;;;;;;5072645;28;20162;-84
2024/01/16 09:37:02;;;;;;;9.73;2.80;;;2.50;99.90;;;;;;5070391;28;20028;-84
2024/01/16 09:39:30;;;;;;;6.72;2.60;;;2.40;99.90;;;;;;5070759;28;20338;-85
2024/01/16 09:41:59;;;;;;;8.23;3.33;;;2.40;99.90;;;;;;5071595;28;20048;-85
2024/01/16 09:44:25;;;;;;;4.20;2.20;;;2.50;99.90;;;;;;5072520;28;20428;-85
2024/01/16 09:46:52;;;;;;;9.05;2.53;;;2.40;99.90;;;;;;5072489;28;20159;-85
2024/01/16 09:49:18;;;;;;;9.00;2.53;;;3.20;99.90;;;;;;5073676;28;20100;-92
2024/01/16 09:51:44;;;;;;;6.53;2.20;;;2.40;99.90;;;;;;5074156;28;20083;-90
2024/01/16 09:54:09;;;;;;;7.22;2.45;;;2.40;99.90;;;;;;5073386;28;20035;-87
2024/01/16 09:56:41;;;;;;;8.15;2.40;;;2.50;99.90;;;;;;5062818;28;20358;-85
2024/01/16 09:59:09;;;;;;;3.83;2.10;;;2.40;99.90;;;;;;5070833;28;20036;-89
2024/01/16 10:01:36;;;;;;;7.72;2.47;;;3.10;99.90;;;;;;5073334;28;20094;-90
2024/01/16 10:04:02;;;;;;;5.05;1.65;;;2.40;99.90;;;;;;5075771;28;20095;-90
2024/01/16 10:06:52;;;;;;;13.43;2.00;;;3.50;99.90;;;;;;5073275;28;20416;-89
2024/01/16 10:09:17;;;;;;;7.88;2.13;;;2.40;99.90;;;;;;5084980;28;20032;-90
2024/01/16 10:11:45;;;;;;;3.65;1.80;;;2.60;99.90;;;;;;5078431;28;20028;-90
2024/01/16 10:14:18;;;;;;;5.38;2.20;;;3.10;99.90;;;;;;5090574;28;20020;-88
2024/01/16 10:17:02;;;;;;;4.05;1.92;;;2.00;99.90;;;;;;5086378;28;20037;-87
2024/01/16 10:19:29;;;;;;;4.68;2.80;;;2.40;99.90;;;;;;5072862;28;20479;-87
2024/01/16 10:22:03;;;;;;;9.27;2.70;;;2.50;99.90;;;;;;5070398;28;20024;-86
2024/01/16 10:24:28;;;;;;;7.38;2.90;;;2.50;99.90;;;;;;5067036;28;20036;-85
2024/01/16 10:27:00;;;;;;;10.80;2.38;;;2.40;99.90;;;;;;5070529;28;20031;-84
2024/01/16 10:29:26;;;;;;;11.40;2.80;;;2.40;99.90;;;;;;5071463;28;20365;-84
2024/01/16 10:31:51;;;;;;;6.32;2.10;;;2.40;99.90;;;;;;5071915;28;20094;-83
2024/01/16 10:34:22;;;;;;;6.93;2.30;;;2.50;99.90;;;;;;5071932;28;20032;-84
2024/01/16 10:36:57;;;;;;;7.18;2.90;;;2.50;99.90;;;;;;5059209;28;20020;-85
2024/01/16 10:39:23;;;;;;;9.43;2.80;;;2.50;99.90;;;;;;5067421;28;20083;-83
2024/01/16 10:41:58;;;;;;;5.80;2.03;;;2.50;99.90;;;;;;5062807;28;20534;-83
2024/01/16 10:44:24;;;;;;;4.00;2.15;;;2.50;99.90;;;;;;5071141;28;20059;-84
2024/01/16 10:46:50;;;;;;;6.88;2.17;;;2.50;99.90;;;;;;5072060;28;20044;-85
2024/01/16 10:49:16;;;;;;;3.70;2.00;;;3.50;99.90;;;;;;5072344;28;20036;-85
2024/01/16 10:51:45;;;;;;;5.93;2.35;;;2.60;99.90;;;;;;5070407;28;20028;-84
2024/01/16 10:54:14;;;;;;;8.10;2.70;;;3.40;99.90;;;;;;5071966;28;20089;-84
2024/01/16 10:56:45;;;;;;;6.63;2.30;;;2.90;99.90;;;;;;5071070;28;20039;-85
2024/01/16 10:59:25;;;;;;;8.68;2.50;;;2.70;99.90;;;;;;5071610;28;20040;-83
2024/01/16 11:01:56;;;;;;;9.77;3.05;;;2.70;99.90;;;;;;5071795;28;20490;-83
2024/01/16 11:04:22;;;;;;;5.32;2.35;;;2.70;99.90;;;;;;5070449;28;20043;-84
2024/01/16 11:06:51;;;;;;;6.45;2.25;;;2.60;99.90;;;;;;5071432;28;20027;-84
2024/01/16 11:09:17;;;;;;;7.15;2.95;;;2.70;99.90;;;;;;5071302;28;20028;-85
2024/01/16 11:11:47;;;;;;;6.53;2.25;;;2.70;99.90;;;;;;5063525;28;20056;-87
2024/01/16 11:14:15;;;;;;;6.85;3.00;;;2.60;99.90;;;;;;5071092;28;20028;-83
2024/01/16 11:16:43;;;;;;;7.32;2.70;;;2.70;99.90;;;;;;5071035;28;20032;-84
2024/01/16 11:19:09;;;;;;;10.13;3.08;;;2.70;99.90;;;;;;5071201;28;20037;-84
2024/01/16 11:21:36;;;;;;;7.65;3.20;;;2.60;99.90;;;;;;5071228;28;20032;-83
2024/01/16 11:24:02;;;;;;;4.82;2.60;;;2.60;99.90;;;;;;5070985;28;20121;-83
2024/01/16 11:26:33;;;;;;;8.10;2.58;;;2.60;99.90;;;;;;5063925;28;20380;-83
2024/01/16 11:29:00;;;;;;;;;;;2.60;99.90;;;;;;5072157;28;20099;-83
2024/01/16 11:31:35;;;;;;;11.52;3.05;;;2.70;99.90;;;;;;5070232;28;19913;-85
2024/01/16 11:34:02;;;;;;;5.38;2.40;;;3.80;99.90;;;;;;5071720;28;20028;-83
2024/01/16 11:36:51;;;;;;;10.07;3.13;;;2.60;99.90;;;;;;5071345;28;20023;-83
2024/01/16 11:39:19;;;;;;;11.23;3.03;;;2.70;99.90;;;;;;5050717;28;20059;-84
2024/01/16 11:41:49;;;;;;;6.13;3.60;;;3.00;99.90;;;;;;5050861;28;20469;-84
2024/01/16 11:44:43;;;;;;;6.47;2.75;;;2.70;99.90;;;;;;5051658;28;20025;-83
2024/01/16 11:47:14;;;;;;;8.43;2.85;;;2.70;99.90;;;;;;5050707;28;20469;-84
2024/01/16 11:49:41;;;;;;;7.28;2.50;;;2.80;99.90;;;;;;5050932;28;20064;-85
2024/01/16 11:52:07;;;;;;;11.75;3.10;;;2.80;99.90;;;;;;5051578;28;20477;-84
2024/01/16 11:54:33;;;;;;;5.10;2.80;;;2.90;99.90;;;;;;5068192;28;20044;-85
2024/01/16 11:57:18;;;;;;;6.38;2.60;;;2.90;99.90;;;;;;5066198;28;20021;-86
2024/01/16 12:00:12;;;;;;;9.93;2.88;;;3.00;99.90;;;;;;5054312;28;20033;-85
2024/01/16 12:02:56;;;;;;;8.10;2.20;;;2.90;99.90;;;;;;5061039;28;20056;-83
2024/01/16 12:05:22;;;;;;;5.47;2.92;;;2.90;99.90;;;;;;5072714;28;20017;-85
2024/01/16 12:07:50;;;;;;;9.93;2.90;;;2.80;99.90;;;;;;5073087;28;20017;-85
2024/01/16 12:10:24;;;;;;;4.45;2.55;;;3.50;99.90;;;;;;5071308;28;20040;-85
2024/01/16 12:12:51;;;;;;;14.73;2.80;;;2.90;99.90;;;;;;5057938;28;20321;-85
2024/01/16 12:15:19;;;;;;;5.88;2.40;;;3.00;99.90;;;;;;5071685;28;20032;-85
2024/01/16 12:18:01;;;;;;;6.05;3.00;;;3.00;99.90;;;;;;5059569;28;20464;-86
2024/01/16 12:20:31;;;;;;;5.35;2.15;;;3.10;99.90;;;;;;5053012;28;20545;-85
2024/01/16 12:23:06;;;;;;;8.15;2.90;;;3.10;99.90;;;;;;5052890;28;20048;-84
2024/01/16 12:25:36;;;;;;;8.75;2.78;;;3.10;99.90;;;;;;5058089;28;20029;-85
2024/01/16 12:28:04;;;;;;;8.93;2.55;;;3.20;99.90;;;;;;5052724;28;20504;-85
2024/01/16 12:30:32;;;;;;;7.78;2.85;;;3.20;99.90;;;;;;5051507;28;20064;-85
2024/01/16 12:33:08;;;;;;;5.72;2.90;;;3.30;99.90;;;;;;5052475;28;20044;-84
2024/01/16 12:35:38;;;;;;;7.57;2.67;;;3.30;99.90;;;;;;5070729;28;20507;-84
2024/01/16 12:38:06;;;;;;;6.95;2.75;;;3.30;99.90;;;;;;5063569;28;20040;-85
2024/01/16 12:40:33;;;;;;;7.78;3.05;;;4.10;99.90;;;;;;5056602;28;20505;-85
2024/01/16 12:42:59;;;;;;;3.88;1.92;;;3.40;99.90;;;;;;5052405;28;20063;-84
2024/01/16 12:45:25;;;;;;;11.32;2.58;;;3.40;99.90;;;;;;5054410;28;20048;-83
2024/01/16 12:47:54;;;;;;;9.15;2.45;;;3.40;99.90;;;;;;5054612;28;20029;-83
2024/01/16 12:50:24;;;;;;;3.13;2.03;;;3.40;99.90;;;;;;5053870;28;20480;-84
2024/01/16 12:52:50;;;;;;;3.30;1.67;;;3.40;99.90;;;;;;5057219;28;20109;-86
2024/01/16 12:55:17;;;;;;;9.98;2.35;;;3.40;99.90;;;;;;5074242;28;20058;-85